sensor_id;sensor_type;location;lat;lon;timestamp;temperature;humidity
5196;DHT22;2617;51.006;12.436;2023-06-22T00:03:56;19.20;99.90
5196;DHT22;2617;51.006;12.436;2023-06-22T00:08:59;19.20;99.90
5196;DHT22;2617;51.006;12.436;2023-06-22T00:14:02;19.20;99.90
5196;DHT22;2617;51.006;12.436;2023-06-22T00:19:06;19.10;99.90
5196;DHT22;2617;51.006;12.436;2023-06-22T00:24:08;19.10;99.90
5196;DHT22;2617;51.006;12.436;2023-06-22T00:29:11;19.00;99.90
5196;DHT22;2617;51.006;12.436;2023-06-22T00:34:13;18.90;99.90
5196;DHT22;2617;51.006;12.436;2023-06-22T00:39:16;18.80;99.90
5196;DHT22;2617;51.006;12.436;2023-06-22T00:44:18;18.80;99.90
5196;DHT22;2617;51.006;12.436;2023-06-22T00:49:21;18.70;99.90
5196;DHT22;2617;51.006;12.436;2023-06-22T00:54:24;18.60;99.90
5196;DHT22;2617;51.006;12.436;2023-06-22T00:59:27;18.60;99.90
5196;DHT22;2617;51.006;12.436;2023-06-22T01:04:34;18.40;99.90
5196;DHT22;2617;51.006;12.436;2023-06-22T01:09:38;18.30;99.90
5196;DHT22;2617;51.006;12.436;2023-06-22T01:14:43;18.30;99.90
5196;DHT22;2617;51.006;12.436;2023-06-22T01:19:48;18.20;99.90
5196;DHT22;2617;51.006;12.436;2023-06-22T01:25:10;18.20;99.90
5196;DHT22;2617;51.006;12.436;2023-06-22T01:30:14;18.20;99.90
5196;DHT22;2617;51.006;12.436;2023-06-22T01:35:17;18.20;99.90
5196;DHT22;2617;51.006;12.436;2023-06-22T01:40:20;18.20;99.90
5196;DHT22;2617;51.006;12.436;2023-06-22T01:45:23;18.20;99.90
5196;DHT22;2617;51.006;12.436;2023-06-22T01:50:26;18.10;99.90
5196;DHT22;2617;51.006;12.436;2023-06-22T01:55:29;18.10;99.90
5196;DHT22;2617;51.006;12.436;2023-06-22T02:00:33;17.90;99.90
5196;DHT22;2617;51.006;12.436;2023-06-22T02:05:38;17.90;99.90
5196;DHT22;2617;51.006;12.436;2023-06-22T02:10:40;17.90;99.90
5196;DHT22;2617;51.006;12.436;2023-06-22T02:15:43;17.90;99.90
5196;DHT22;2617;51.006;12.436;2023-06-22T02:20:45;17.80;99.90
5196;DHT22;2617;51.006;12.436;2023-06-22T02:25:48;17.80;99.90
5196;DHT22;2617;51.006;12.436;2023-06-22T02:30:50;17.70;99.90
5196;DHT22;2617;51.006;12.436;2023-06-22T02:35:53;17.60;99.90
5196;DHT22;2617;51.006;12.436;2023-06-22T02:40:56;17.40;99.90
5196;DHT22;2617;51.006;12.436;2023-06-22T02:45:59;17.40;99.90
5196;DHT22;2617;51.006;12.436;2023-06-22T02:51:03;17.40;99.90
5196;DHT22;2617;51.006;12.436;2023-06-22T02:56:05;17.40;99.90
5196;DHT22;2617;51.006;12.436;2023-06-22T03:01:08;17.40;99.90
5196;DHT22;2617;51.006;12.436;2023-06-22T03:06:11;17.30;99.90
5196;DHT22;2617;51.006;12.436;2023-06-22T03:11:14;17.50;99.90
5196;DHT22;2617;51.006;12.436;2023-06-22T03:16:17;17.50;99.90
5196;DHT22;2617;51.006;12.436;2023-06-22T03:21:21;17.60;99.90
5196;DHT22;2617;51.006;12.436;2023-06-22T03:26:23;17.90;99.90
5196;DHT22;2617;51.006;12.436;2023-06-22T03:31:27;18.40;99.90
5196;DHT22;2617;51.006;12.436;2023-06-22T03:36:29;18.40;99.90
5196;DHT22;2617;51.006;12.436;2023-06-22T03:41:32;18.60;99.90
5196;DHT22;2617;51.006;12.436;2023-06-22T03:46:34;18.70;99.90
5196;DHT22;2617;51.006;12.436;2023-06-22T03:51:37;18.90;99.90
5196;DHT22;2617;51.006;12.436;2023-06-22T03:56:39;19.20;99.90
5196;DHT22;2617;51.006;12.436;2023-06-22T04:01:42;19.70;99.90
5196;DHT22;2617;51.006;12.436;2023-06-22T04:06:45;21.30;99.90
5196;DHT22;2617;51.006;12.436;2023-06-22T04:11:48;21.30;99.90
5196;DHT22;2617;51.006;12.436;2023-06-22T04:16:51;21.50;99.90
5196;DHT22;2617;51.006;12.436;2023-06-22T04:21:55;20.80;99.90
5196;DHT22;2617;51.006;12.436;2023-06-22T04:26:57;20.80;99.90
5196;DHT22;2617;51.006;12.436;2023-06-22T04:32:00;20.10;99.90
5196;DHT22;2617;51.006;12.436;2023-06-22T04:37:04;19.60;99.90
5196;DHT22;2617;51.006;12.436;2023-06-22T04:42:07;19.30;99.90
5196;DHT22;2617;51.006;12.436;2023-06-22T04:47:09;19.30;99.90
5196;DHT22;2617;51.006;12.436;2023-06-22T04:52:12;19.50;99.90
5196;DHT22;2617;51.006;12.436;2023-06-22T04:57:14;20.10;99.90
5196;DHT22;2617;51.006;12.436;2023-06-22T05:02:17;21.60;99.90
5196;DHT22;2617;51.006;12.436;2023-06-22T05:07:19;24.40;99.90
5196;DHT22;2617;51.006;12.436;2023-06-22T05:12:22;26.10;99.90
5196;DHT22;2617;51.006;12.436;2023-06-22T05:17:25;25.90;99.90
5196;DHT22;2617;51.006;12.436;2023-06-22T05:22:28;23.20;99.90
5196;DHT22;2617;51.006;12.436;2023-06-22T05:27:31;23.10;99.90
5196;DHT22;2617;51.006;12.436;2023-06-22T05:32:33;22.00;99.90
5196;DHT22;2617;51.006;12.436;2023-06-22T05:37:36;21.60;99.90
5196;DHT22;2617;51.006;12.436;2023-06-22T05:42:39;21.60;99.90
5196;DHT22;2617;51.006;12.436;2023-06-22T05:47:41;21.40;99.90
5196;DHT22;2617;51.006;12.436;2023-06-22T05:52:44;21.10;99.90
5196;DHT22;2617;51.006;12.436;2023-06-22T05:57:46;20.80;99.90
5196;DHT22;2617;51.006;12.436;2023-06-22T06:02:49;20.60;99.90
5196;DHT22;2617;51.006;12.436;2023-06-22T06:07:51;20.80;99.90
5196;DHT22;2617;51.006;12.436;2023-06-22T06:12:54;21.00;99.90
5196;DHT22;2617;51.006;12.436;2023-06-22T06:17:56;21.60;99.90
5196;DHT22;2617;51.006;12.436;2023-06-22T06:23:00;22.70;99.90
5196;DHT22;2617;51.006;12.436;2023-06-22T06:28:02;22.70;99.90
5196;DHT22;2617;51.006;12.436;2023-06-22T06:33:05;22.90;99.90
5196;DHT22;2617;51.006;12.436;2023-06-22T06:38:08;24.10;99.90
5196;DHT22;2617;51.006;12.436;2023-06-22T06:43:11;24.10;99.90
5196;DHT22;2617;51.006;12.436;2023-06-22T06:48:14;24.60;99.90
5196;DHT22;2617;51.006;12.436;2023-06-22T06:53:17;24.60;99.90
5196;DHT22;2617;51.006;12.436;2023-06-22T06:58:19;24.60;99.90
5196;DHT22;2617;51.006;12.436;2023-06-22T07:03:22;24.70;99.90
5196;DHT22;2617;51.006;12.436;2023-06-22T07:08:25;25.50;99.90
5196;DHT22;2617;51.006;12.436;2023-06-22T07:13:28;25.50;99.90
5196;DHT22;2617;51.006;12.436;2023-06-22T07:18:31;25.50;99.90
5196;DHT22;2617;51.006;12.436;2023-06-22T07:23:34;25.50;99.90
5196;DHT22;2617;51.006;12.436;2023-06-22T07:28:37;26.70;99.90
5196;DHT22;2617;51.006;12.436;2023-06-22T07:33:40;26.70;99.90
5196;DHT22;2617;51.006;12.436;2023-06-22T07:38:42;27.20;99.90
5196;DHT22;2617;51.006;12.436;2023-06-22T07:43:45;27.40;99.90
5196;DHT22;2617;51.006;12.436;2023-06-22T07:48:47;27.50;99.90
5196;DHT22;2617;51.006;12.436;2023-06-22T07:53:50;27.90;99.90
5196;DHT22;2617;51.006;12.436;2023-06-22T07:58:52;27.70;99.70
5196;DHT22;2617;51.006;12.436;2023-06-22T08:03:55;27.40;99.70
5196;DHT22;2617;51.006;12.436;2023-06-22T08:08:58;27.30;99.90
5196;DHT22;2617;51.006;12.436;2023-06-22T08:14:01;27.90;98.60
5196;DHT22;2617;51.006;12.436;2023-06-22T08:19:05;27.90;97.70
5196;DHT22;2617;51.006;12.436;2023-06-22T08:24:07;27.90;97.70
5196;DHT22;2617;51.006;12.436;2023-06-22T08:29:10;27.90;98.60
5196;DHT22;2617;51.006;12.436;2023-06-22T08:34:12;28.10;97.90
5196;DHT22;2617;51.006;12.436;2023-06-22T08:39:15;28.40;97.10
5196;DHT22;2617;51.006;12.436;2023-06-22T08:44:18;28.20;95.80
5196;DHT22;2617;51.006;12.436;2023-06-22T08:49:21;28.20;95.80
5196;DHT22;2617;51.006;12.436;2023-06-22T08:54:24;28.10;96.10
5196;DHT22;2617;51.006;12.436;2023-06-22T08:59:27;28.10;96.10
5196;DHT22;2617;51.006;12.436;2023-06-22T09:04:29;28.80;95.00
5196;DHT22;2617;51.006;12.436;2023-06-22T09:09:32;29.30;93.90
5196;DHT22;2617;51.006;12.436;2023-06-22T09:14:35;29.40;93.50
5196;DHT22;2617;51.006;12.436;2023-06-22T09:19:37;29.50;93.90
5196;DHT22;2617;51.006;12.436;2023-06-22T09:24:45;29.50;93.90
5196;DHT22;2617;51.006;12.436;2023-06-22T09:29:48;29.10;94.30
5196;DHT22;2617;51.006;12.436;2023-06-22T09:34:50;29.10;94.30
5196;DHT22;2617;51.006;12.436;2023-06-22T09:39:54;28.90;94.60
5196;DHT22;2617;51.006;12.436;2023-06-22T09:44:57;29.10;95.90
5196;DHT22;2617;51.006;12.436;2023-06-22T09:50:00;29.50;93.50
5196;DHT22;2617;51.006;12.436;2023-06-22T09:55:03;29.40;93.50
5196;DHT22;2617;51.006;12.436;2023-06-22T10:00:07;29.90;92.90
5196;DHT22;2617;51.006;12.436;2023-06-22T10:05:10;29.90;92.80
5196;DHT22;2617;51.006;12.436;2023-06-22T10:10:13;29.90;93.70
5196;DHT22;2617;51.006;12.436;2023-06-22T10:15:16;29.90;93.00
5196;DHT22;2617;51.006;12.436;2023-06-22T10:20:19;29.80;93.00
5196;DHT22;2617;51.006;12.436;2023-06-22T10:25:22;30.00;92.60
5196;DHT22;2617;51.006;12.436;2023-06-22T10:30:24;30.30;91.90
5196;DHT22;2617;51.006;12.436;2023-06-22T10:35:27;30.60;91.60
5196;DHT22;2617;51.006;12.436;2023-06-22T10:40:30;30.40;91.90
5196;DHT22;2617;51.006;12.436;2023-06-22T10:45:32;30.30;92.10
5196;DHT22;2617;51.006;12.436;2023-06-22T10:50:35;30.30;92.00
5196;DHT22;2617;51.006;12.436;2023-06-22T10:55:37;30.30;92.00
5196;DHT22;2617;51.006;12.436;2023-06-22T11:00:40;30.40;91.40
5196;DHT22;2617;51.006;12.436;2023-06-22T11:05:43;30.70;90.70
5196;DHT22;2617;51.006;12.436;2023-06-22T11:10:46;30.70;90.70
5196;DHT22;2617;51.006;12.436;2023-06-22T11:15:48;30.30;91.20
5196;DHT22;2617;51.006;12.436;2023-06-22T11:20:51;30.90;90.50
5196;DHT22;2617;51.006;12.436;2023-06-22T11:25:54;31.30;87.50
5196;DHT22;2617;51.006;12.436;2023-06-22T11:30:57;30.30;90.20
5196;DHT22;2617;51.006;12.436;2023-06-22T11:36:00;30.90;90.00
5196;DHT22;2617;51.006;12.436;2023-06-22T11:41:05;30.30;90.00
5196;DHT22;2617;51.006;12.436;2023-06-22T11:46:08;30.30;90.20
5196;DHT22;2617;51.006;12.436;2023-06-22T11:51:10;31.00;89.30
5196;DHT22;2617;51.006;12.436;2023-06-22T11:56:13;32.10;85.60
5196;DHT22;2617;51.006;12.436;2023-06-22T12:01:16;32.00;85.50
5196;DHT22;2617;51.006;12.436;2023-06-22T12:06:19;32.30;83.20
5196;DHT22;2617;51.006;12.436;2023-06-22T12:11:22;32.00;83.00
5196;DHT22;2617;51.006;12.436;2023-06-22T12:16:24;31.50;84.40
5196;DHT22;2617;51.006;12.436;2023-06-22T12:21:27;31.20;84.30
5196;DHT22;2617;51.006;12.436;2023-06-22T12:26:30;31.50;84.50
5196;DHT22;2617;51.006;12.436;2023-06-22T12:31:32;31.90;81.80
5196;DHT22;2617;51.006;12.436;2023-06-22T12:36:37;32.50;80.50
5196;DHT22;2617;51.006;12.436;2023-06-22T12:41:39;32.40;80.50
5196;DHT22;2617;51.006;12.436;2023-06-22T12:46:41;32.50;80.80
5196;DHT22;2617;51.006;12.436;2023-06-22T12:51:44;32.20;80.10
5196;DHT22;2617;51.006;12.436;2023-06-22T12:56:47;32.30;79.40
5196;DHT22;2617;51.006;12.436;2023-06-22T13:01:49;32.10;80.20
5196;DHT22;2617;51.006;12.436;2023-06-22T13:06:52;32.20;79.80
5196;DHT22;2617;51.006;12.436;2023-06-22T13:11:54;31.60;81.20
5196;DHT22;2617;51.006;12.436;2023-06-22T13:16:57;31.70;81.40
5196;DHT22;2617;51.006;12.436;2023-06-22T13:21:59;31.90;82.40
5196;DHT22;2617;51.006;12.436;2023-06-22T13:27:02;32.80;79.30
5196;DHT22;2617;51.006;12.436;2023-06-22T13:32:05;32.30;79.40
5196;DHT22;2617;51.006;12.436;2023-06-22T13:37:08;31.90;79.70
5196;DHT22;2617;51.006;12.436;2023-06-22T13:42:11;32.10;79.60
5196;DHT22;2617;51.006;12.436;2023-06-22T13:47:14;32.10;79.80
5196;DHT22;2617;51.006;12.436;2023-06-22T13:52:17;32.10;79.80
5196;DHT22;2617;51.006;12.436;2023-06-22T13:57:20;31.90;80.40
5196;DHT22;2617;51.006;12.436;2023-06-22T14:02:22;31.90;80.40
5196;DHT22;2617;51.006;12.436;2023-06-22T14:07:25;31.70;80.80
5196;DHT22;2617;51.006;12.436;2023-06-22T14:12:28;31.70;82.80
5196;DHT22;2617;51.006;12.436;2023-06-22T14:17:31;31.70;82.80
5196;DHT22;2617;51.006;12.436;2023-06-22T14:22:34;31.50;81.10
5196;DHT22;2617;51.006;12.436;2023-06-22T14:27:37;31.50;81.10
5196;DHT22;2617;51.006;12.436;2023-06-22T14:32:40;31.10;83.00
5196;DHT22;2617;51.006;12.436;2023-06-22T14:37:42;30.90;83.20
5196;DHT22;2617;51.006;12.436;2023-06-22T14:42:45;31.00;84.30
5196;DHT22;2617;51.006;12.436;2023-06-22T14:47:47;31.60;82.70
5196;DHT22;2617;51.006;12.436;2023-06-22T14:52:50;32.00;81.50
5196;DHT22;2617;51.006;12.436;2023-06-22T14:57:52;32.40;80.70
5196;DHT22;2617;51.006;12.436;2023-06-22T15:02:55;32.70;80.20
5196;DHT22;2617;51.006;12.436;2023-06-22T15:07:58;32.70;80.10
5196;DHT22;2617;51.006;12.436;2023-06-22T15:13:01;32.00;79.80
5196;DHT22;2617;51.006;12.436;2023-06-22T15:18:03;31.80;82.30
5196;DHT22;2617;51.006;12.436;2023-06-22T15:23:06;31.80;80.30
5196;DHT22;2617;51.006;12.436;2023-06-22T15:28:09;31.80;80.10
5196;DHT22;2617;51.006;12.436;2023-06-22T15:33:11;31.40;81.70
5196;DHT22;2617;51.006;12.436;2023-06-22T15:38:14;31.50;81.50
5196;DHT22;2617;51.006;12.436;2023-06-22T15:43:17;31.60;81.40
5196;DHT22;2617;51.006;12.436;2023-06-22T15:48:19;31.90;80.10
5196;DHT22;2617;51.006;12.436;2023-06-22T15:53:23;31.10;82.00
5196;DHT22;2617;51.006;12.436;2023-06-22T15:58:27;31.10;82.00
5196;DHT22;2617;51.006;12.436;2023-06-22T16:03:29;31.00;82.00
5196;DHT22;2617;51.006;12.436;2023-06-22T16:08:33;31.00;84.60
5196;DHT22;2617;51.006;12.436;2023-06-22T16:13:36;31.10;83.70
5196;DHT22;2617;51.006;12.436;2023-06-22T16:18:39;31.10;83.60
5196;DHT22;2617;51.006;12.436;2023-06-22T16:23:42;31.10;83.50
5196;DHT22;2617;51.006;12.436;2023-06-22T16:28:44;30.80;84.70
5196;DHT22;2617;51.006;12.436;2023-06-22T16:33:47;30.80;84.70
5196;DHT22;2617;51.006;12.436;2023-06-22T16:38:50;30.60;86.50
5196;DHT22;2617;51.006;12.436;2023-06-22T16:43:53;30.60;87.40
5196;DHT22;2617;51.006;12.436;2023-06-22T16:48:56;30.60;87.40
5196;DHT22;2617;51.006;12.436;2023-06-22T16:53:59;30.60;87.10
5196;DHT22;2617;51.006;12.436;2023-06-22T16:59:01;30.50;87.70
5196;DHT22;2617;51.006;12.436;2023-06-22T17:04:08;30.40;88.30
5196;DHT22;2617;51.006;12.436;2023-06-22T17:09:11;30.20;89.10
5196;DHT22;2617;51.006;12.436;2023-06-22T17:14:14;30.00;89.30
5196;DHT22;2617;51.006;12.436;2023-06-22T17:19:18;29.90;90.10
5196;DHT22;2617;51.006;12.436;2023-06-22T17:24:21;29.80;90.40
5196;DHT22;2617;51.006;12.436;2023-06-22T17:29:28;29.80;90.40
5196;DHT22;2617;51.006;12.436;2023-06-22T17:34:34;29.60;90.50
5196;DHT22;2617;51.006;12.436;2023-06-22T17:39:37;29.60;90.50
5196;DHT22;2617;51.006;12.436;2023-06-22T17:44:39;29.60;90.50
5196;DHT22;2617;51.006;12.436;2023-06-22T17:49:42;29.40;90.70
5196;DHT22;2617;51.006;12.436;2023-06-22T17:54:44;29.30;91.00
5196;DHT22;2617;51.006;12.436;2023-06-22T17:59:47;29.20;91.40
5196;DHT22;2617;51.006;12.436;2023-06-22T18:04:53;29.20;91.70
5196;DHT22;2617;51.006;12.436;2023-06-22T18:09:53;29.00;92.10
5196;DHT22;2617;51.006;12.436;2023-06-22T18:14:56;28.90;92.60
5196;DHT22;2617;51.006;12.436;2023-06-22T18:19:59;28.80;92.80
5196;DHT22;2617;51.006;12.436;2023-06-22T18:25:01;28.70;93.10
5196;DHT22;2617;51.006;12.436;2023-06-22T18:30:04;28.60;93.50
5196;DHT22;2617;51.006;12.436;2023-06-22T18:35:08;28.50;93.90
5196;DHT22;2617;51.006;12.436;2023-06-22T18:40:11;28.30;94.20
5196;DHT22;2617;51.006;12.436;2023-06-22T18:45:21;28.10;94.90
5196;DHT22;2617;51.006;12.436;2023-06-22T18:50:35;28.10;94.90
5196;DHT22;2617;51.006;12.436;2023-06-22T18:55:40;28.00;95.20
5196;DHT22;2617;51.006;12.436;2023-06-22T19:00:40;27.90;95.80
5196;DHT22;2617;51.006;12.436;2023-06-22T19:05:43;27.80;95.80
5196;DHT22;2617;51.006;12.436;2023-06-22T19:10:46;27.70;96.60
5196;DHT22;2617;51.006;12.436;2023-06-22T19:15:53;27.60;96.70
5196;DHT22;2617;51.006;12.436;2023-06-22T19:21:00;27.50;96.90
5196;DHT22;2617;51.006;12.436;2023-06-22T19:26:03;27.40;97.20
5196;DHT22;2617;51.006;12.436;2023-06-22T19:31:08;27.40;97.60
5196;DHT22;2617;51.006;12.436;2023-06-22T19:36:11;27.20;99.90
5196;DHT22;2617;51.006;12.436;2023-06-22T19:41:14;27.20;99.90
5196;DHT22;2617;51.006;12.436;2023-06-22T19:46:17;27.00;99.90
5196;DHT22;2617;51.006;12.436;2023-06-22T19:51:20;26.70;99.90
5196;DHT22;2617;51.006;12.436;2023-06-22T19:56:22;26.00;99.90
5196;DHT22;2617;51.006;12.436;2023-06-22T20:01:25;25.40;99.90
5196;DHT22;2617;51.006;12.436;2023-06-22T20:06:27;24.60;99.90
5196;DHT22;2617;51.006;12.436;2023-06-22T20:11:31;23.90;99.90
5196;DHT22;2617;51.006;12.436;2023-06-22T20:16:37;23.90;99.90
5196;DHT22;2617;51.006;12.436;2023-06-22T20:21:37;23.70;99.90
5196;DHT22;2617;51.006;12.436;2023-06-22T20:26:46;23.40;99.90
5196;DHT22;2617;51.006;12.436;2023-06-22T20:31:47;23.00;99.90
5196;DHT22;2617;51.006;12.436;2023-06-22T20:36:50;22.90;99.90
5196;DHT22;2617;51.006;12.436;2023-06-22T20:41:52;22.80;99.90
5196;DHT22;2617;51.006;12.436;2023-06-22T20:46:55;22.80;99.90
5196;DHT22;2617;51.006;12.436;2023-06-22T20:51:58;22.70;99.90
5196;DHT22;2617;51.006;12.436;2023-06-22T20:57:01;22.70;99.90
5196;DHT22;2617;51.006;12.436;2023-06-22T21:02:03;22.80;99.90
5196;DHT22;2617;51.006;12.436;2023-06-22T21:07:06;22.80;99.90
5196;DHT22;2617;51.006;12.436;2023-06-22T21:12:09;22.80;99.90
5196;DHT22;2617;51.006;12.436;2023-06-22T21:17:11;22.50;99.90
5196;DHT22;2617;51.006;12.436;2023-06-22T21:22:14;22.40;99.90
5196;DHT22;2617;51.006;12.436;2023-06-22T21:27:17;22.20;99.90
5196;DHT22;2617;51.006;12.436;2023-06-22T21:32:20;21.70;99.90
5196;DHT22;2617;51.006;12.436;2023-06-22T21:37:23;21.30;99.90
5196;DHT22;2617;51.006;12.436;2023-06-22T21:42:26;21.30;99.90
5196;DHT22;2617;51.006;12.436;2023-06-22T21:47:29;21.00;99.90
5196;DHT22;2617;51.006;12.436;2023-06-22T21:52:32;20.30;99.90
5196;DHT22;2617;51.006;12.436;2023-06-22T21:57:35;20.20;99.90
5196;DHT22;2617;51.006;12.436;2023-06-22T22:02:41;20.10;99.90
5196;DHT22;2617;51.006;12.436;2023-06-22T22:13:01;19.90;99.90
5196;DHT22;2617;51.006;12.436;2023-06-22T22:18:11;19.70;99.90
5196;DHT22;2617;51.006;12.436;2023-06-22T22:23:16;19.50;99.90
5196;DHT22;2617;51.006;12.436;2023-06-22T22:28:18;19.20;99.90
5196;DHT22;2617;51.006;12.436;2023-06-22T22:33:22;18.60;99.90
5196;DHT22;2617;51.006;12.436;2023-06-22T22:38:25;18.60;99.90
5196;DHT22;2617;51.006;12.436;2023-06-22T22:43:27;18.50;99.90
5196;DHT22;2617;51.006;12.436;2023-06-22T22:48:30;18.40;99.90
5196;DHT22;2617;51.006;12.436;2023-06-22T22:53:33;18.40;99.90
5196;DHT22;2617;51.006;12.436;2023-06-22T22:58:36;18.40;99.90
5196;DHT22;2617;51.006;12.436;2023-06-22T23:03:40;18.40;99.90
5196;DHT22;2617;51.006;12.436;2023-06-22T23:08:43;18.50;99.90
5196;DHT22;2617;51.006;12.436;2023-06-22T23:19:08;18.50;99.90
5196;DHT22;2617;51.006;12.436;2023-06-22T23:24:11;18.60;99.90
5196;DHT22;2617;51.006;12.436;2023-06-22T23:29:13;18.60;99.90
5196;DHT22;2617;51.006;12.436;2023-06-22T23:34:16;18.60;99.90
5196;DHT22;2617;51.006;12.436;2023-06-22T23:39:19;18.70;99.90
5196;DHT22;2617;51.006;12.436;2023-06-22T23:50:13;18.90;99.90
5196;DHT22;2617;51.006;12.436;2023-06-22T23:55:17;18.90;99.90
